createdAt,value
2022-11-10T00:00:56.250Z,1005.2
2022-11-10T00:01:59.369Z,1005.3
2022-11-10T00:03:02.114Z,1005.3
2022-11-10T00:04:05.352Z,1005.3
2022-11-10T00:05:08.889Z,1005.3
2022-11-10T00:06:11.964Z,1005.3
2022-11-10T00:07:15.435Z,1005.4
2022-11-10T00:08:18.343Z,1005.4
2022-11-10T00:09:21.946Z,1005.4
2022-11-10T00:10:25.398Z,1005.4
2022-11-10T00:11:28.274Z,1005.4
2022-11-10T00:12:31.155Z,1005.3
2022-11-10T00:13:34.336Z,1005.4
2022-11-10T00:14:37.087Z,1005.4
2022-11-10T00:15:40.553Z,1005.4
2022-11-10T00:16:44.635Z,1005.4
2022-11-10T00:17:47.247Z,1005.4
2022-11-10T00:18:50.970Z,1005.4
2022-11-10T00:19:53.690Z,1005.4
2022-11-10T00:20:57.230Z,1005.5
2022-11-10T00:22:00.594Z,1005.4
2022-11-10T00:23:03.770Z,1005.4
2022-11-10T00:24:07.028Z,1005.5
2022-11-10T00:25:10.187Z,1005.6
2022-11-10T00:26:13.048Z,1005.6
2022-11-10T00:27:16.441Z,1005.6
2022-11-10T00:28:19.993Z,1005.5
2022-11-10T00:29:22.617Z,1005.5
2022-11-10T00:30:26.049Z,1005.5
2022-11-10T00:31:29.293Z,1005.6
2022-11-10T00:32:32.268Z,1005.7
2022-11-10T00:33:35.063Z,1005.7
2022-11-10T00:34:38.415Z,1005.7
2022-11-10T00:35:41.868Z,1005.6
2022-11-10T00:36:45.350Z,1005.7
2022-11-10T00:37:48.700Z,1005.7
2022-11-10T00:38:51.496Z,1005.7
2022-11-10T00:39:54.124Z,1005.7
2022-11-10T00:40:57.314Z,1005.7
2022-11-10T00:42:00.307Z,1005.7
2022-11-10T00:43:03.380Z,1005.7
2022-11-10T00:44:06.550Z,1005.8
2022-11-10T00:45:09.274Z,1005.7
2022-11-10T00:46:11.705Z,1005.8
2022-11-10T00:47:14.280Z,1005.8
2022-11-10T00:48:17.658Z,1005.8
2022-11-10T00:49:19.908Z,1005.8
2022-11-10T00:50:22.228Z,1005.8
2022-11-10T00:51:25.856Z,1005.8
2022-11-10T00:52:29.411Z,1005.8
2022-11-10T00:53:32.898Z,1005.9
2022-11-10T00:54:35.771Z,1005.8
2022-11-10T00:55:38.850Z,1006
2022-11-10T00:56:42.581Z,1005.9
2022-11-10T00:57:44.822Z,1005.9
2022-11-10T00:58:47.902Z,1006
2022-11-10T00:59:51.043Z,1006
2022-11-10T01:00:54.542Z,1006
2022-11-10T01:01:57.842Z,1006
2022-11-10T01:03:01.227Z,1006
2022-11-10T01:04:04.096Z,1006.1
2022-11-10T01:05:06.357Z,1006.1
2022-11-10T01:06:09.807Z,1006.1
2022-11-10T01:07:13.069Z,1006.1
2022-11-10T01:08:16.608Z,1006.1
2022-11-10T01:09:20.299Z,1006.1
2022-11-10T01:10:23.197Z,1006.1
2022-11-10T01:11:26.351Z,1006.2
2022-11-10T01:12:29.782Z,1006.1
2022-11-10T01:13:32.927Z,1006.2
2022-11-10T01:14:35.913Z,1006.2
2022-11-10T01:15:38.736Z,1006.2
2022-11-10T01:16:42.289Z,1006.2
2022-11-10T01:17:45.284Z,1006.2
2022-11-10T01:18:48.395Z,1006.2
2022-11-10T01:19:51.319Z,1006.3
2022-11-10T01:20:54.115Z,1006.2
2022-11-10T01:21:56.997Z,1006.3
2022-11-10T01:23:00.146Z,1006.3
2022-11-10T01:24:03.639Z,1006.3
2022-11-10T01:25:06.776Z,1006.3
2022-11-10T01:26:10.248Z,1006.4
2022-11-10T01:27:13.712Z,1006.3
2022-11-10T01:28:16.806Z,1006.4
2022-11-10T01:29:20.155Z,1006.4
2022-11-10T01:30:23.866Z,1006.4
2022-11-10T01:31:27.582Z,1006.4
2022-11-10T01:32:31.359Z,1006.5
2022-11-10T01:33:35.084Z,1006.5
2022-11-10T01:34:38.220Z,1006.4
2022-11-10T01:35:41.434Z,1006.5
2022-11-10T01:36:44.066Z,1006.5
2022-11-10T01:37:47.133Z,1006.4
2022-11-10T01:38:50.412Z,1006.5
2022-11-10T01:39:54.033Z,1006.5
2022-11-10T01:40:57.481Z,1006.5
2022-11-10T01:42:01.011Z,1006.5
2022-11-10T01:43:04.098Z,1006.5
2022-11-10T01:44:07.198Z,1006.5
2022-11-10T01:45:10.028Z,1006.5
2022-11-10T01:46:12.746Z,1006.6
2022-11-10T01:47:15.734Z,1006.6
2022-11-10T01:48:18.663Z,1006.6
2022-11-10T01:49:21.738Z,1006.6
2022-11-10T01:50:24.868Z,1006.6
2022-11-10T01:51:27.963Z,1006.7
2022-11-10T01:52:31.679Z,1006.7
2022-11-10T01:53:34.385Z,1006.7
2022-11-10T01:54:37.530Z,1006.7
2022-11-10T01:55:40.810Z,1006.7
2022-11-10T01:56:43.605Z,1006.7
2022-11-10T01:57:47.036Z,1006.8
2022-11-10T01:58:50.103Z,1006.8
2022-11-10T01:59:53.803Z,1006.8
2022-11-10T02:00:56.921Z,1006.8
2022-11-10T02:02:00.177Z,1006.8
2022-11-10T02:03:02.891Z,1006.9
2022-11-10T02:04:05.449Z,1006.8
2022-11-10T02:05:08.444Z,1006.8
2022-11-10T02:06:12.126Z,1006.8
2022-11-10T02:07:15.688Z,1006.9
2022-11-10T02:08:18.669Z,1006.9
2022-11-10T02:09:22.310Z,1006.9
2022-11-10T02:10:25.196Z,1006.8
2022-11-10T02:11:28.329Z,1006.9
2022-11-10T02:12:30.589Z,1006.8
2022-11-10T02:13:33.399Z,1006.9
2022-11-10T02:14:36.195Z,1006.9
2022-11-10T02:15:39.645Z,1006.9
2022-11-10T02:16:42.997Z,1006.9
2022-11-10T02:17:46.352Z,1006.9
2022-11-10T02:18:49.734Z,1006.9
2022-11-10T02:19:52.839Z,1006.9
2022-11-10T02:20:56.197Z,1006.9
2022-11-10T02:21:59.324Z,1006.9
2022-11-10T02:23:02.421Z,1006.9
2022-11-10T02:24:05.295Z,1006.9
2022-11-10T02:25:08.096Z,1007
2022-11-10T02:26:11.167Z,1007
2022-11-10T02:27:14.580Z,1007
2022-11-10T02:28:16.892Z,1007
2022-11-10T02:29:19.884Z,1007.1
2022-11-10T02:30:28.028Z,1007.1
2022-11-10T02:31:30.845Z,1007.1
2022-11-10T02:32:33.622Z,1007.1
2022-11-10T02:33:36.046Z,1007.1
2022-11-10T02:34:39.588Z,1007.2
2022-11-10T02:35:42.419Z,1007.2
2022-11-10T02:36:45.422Z,1007.2
2022-11-10T02:37:48.542Z,1007.1
2022-11-10T02:38:51.994Z,1007.2
2022-11-10T02:39:54.800Z,1007.2
2022-11-10T02:40:57.324Z,1007.2
2022-11-10T02:41:59.837Z,1007.2
2022-11-10T02:43:02.710Z,1007.2
2022-11-10T02:44:05.704Z,1007.3
2022-11-10T02:45:07.652Z,1007.3
2022-11-10T02:46:10.157Z,1007.3
2022-11-10T02:47:13.542Z,1007.3
2022-11-10T02:48:16.537Z,1007.4
2022-11-10T02:49:18.980Z,1007.4
2022-11-10T02:50:22.439Z,1007.4
2022-11-10T02:51:25.913Z,1007.4
2022-11-10T02:52:29.066Z,1007.4
2022-11-10T02:53:31.636Z,1007.4
2022-11-10T02:54:35.381Z,1007.4
2022-11-10T02:55:38.263Z,1007.4
2022-11-10T02:56:41.799Z,1007.5
2022-11-10T02:57:44.949Z,1007.5
2022-11-10T02:58:48.257Z,1007.5
2022-11-10T02:59:51.123Z,1007.5
2022-11-10T03:00:53.784Z,1007.5
2022-11-10T03:01:57.350Z,1007.6
2022-11-10T03:03:00.844Z,1007.6
2022-11-10T03:04:03.640Z,1007.6
2022-11-10T03:05:06.540Z,1007.6
2022-11-10T03:06:09.704Z,1007.5
2022-11-10T03:07:12.598Z,1007.6
2022-11-10T03:08:15.493Z,1007.6
2022-11-10T03:09:18.122Z,1007.6
2022-11-10T03:10:21.022Z,1007.6
2022-11-10T03:11:32.304Z,1007.6
2022-11-10T03:12:35.378Z,1007.6
2022-11-10T03:14:02.235Z,1007.7
2022-11-10T03:15:06.004Z,1007.7
2022-11-10T03:16:08.529Z,1007.7
2022-11-10T03:17:11.480Z,1007.8
2022-11-10T03:18:14.936Z,1007.8
2022-11-10T03:19:17.945Z,1007.8
2022-11-10T03:20:21.163Z,1007.8
2022-11-10T03:21:23.961Z,1007.9
2022-11-10T03:22:26.599Z,1007.9
2022-11-10T03:23:29.757Z,1007.9
2022-11-10T03:24:32.597Z,1007.8
2022-11-10T03:25:35.379Z,1007.9
2022-11-10T03:26:38.471Z,1007.9
2022-11-10T03:27:41.186Z,1007.9
2022-11-10T03:28:44.712Z,1007.9
2022-11-10T03:29:47.788Z,1008
2022-11-10T03:30:51.463Z,1008
2022-11-10T03:31:54.922Z,1008.1
2022-11-10T03:32:57.719Z,1008
2022-11-10T03:34:01.164Z,1008
2022-11-10T03:35:04.899Z,1008
2022-11-10T03:36:07.222Z,1008
2022-11-10T03:37:10.598Z,1008
2022-11-10T03:38:13.625Z,1008
2022-11-10T03:39:16.718Z,1008
2022-11-10T03:40:19.751Z,1008
2022-11-10T03:41:22.632Z,1008.1
2022-11-10T03:42:25.212Z,1008.1
2022-11-10T03:43:27.926Z,1008.1
2022-11-10T03:44:31.198Z,1008.1
2022-11-10T03:45:34.271Z,1008.1
2022-11-10T03:46:37.226Z,1008.1
2022-11-10T03:47:53.912Z,1008.2
2022-11-10T03:48:57.369Z,1008.1
2022-11-10T03:50:00.192Z,1008.2
2022-11-10T03:51:03.737Z,1008.1
2022-11-10T03:52:06.454Z,1008.2
2022-11-10T03:53:09.320Z,1008.1
2022-11-10T03:54:13.095Z,1008.1
2022-11-10T03:55:16.136Z,1008.1
2022-11-10T03:56:18.633Z,1008.3
2022-11-10T03:57:21.536Z,1008.2
2022-11-10T03:58:24.532Z,1008.2
2022-11-10T03:59:27.324Z,1008.2
2022-11-10T04:00:30.415Z,1008.2
2022-11-10T04:01:33.554Z,1008.2
2022-11-10T04:02:37.197Z,1008.1
2022-11-10T04:03:40.285Z,1008.2
2022-11-10T04:04:43.629Z,1008.2
2022-11-10T04:05:47.303Z,1008.2
2022-11-10T04:06:50.153Z,1008.2
2022-11-10T04:07:54.177Z,1008.3
2022-11-10T04:08:57.284Z,1008.3
2022-11-10T04:10:00.186Z,1008.2
2022-11-10T04:11:02.894Z,1008.3
2022-11-10T04:12:06.492Z,1008.3
2022-11-10T04:13:09.890Z,1008.3
2022-11-10T04:14:12.211Z,1008.3
2022-11-10T04:15:15.404Z,1008.3
2022-11-10T04:16:19.073Z,1008.4
2022-11-10T04:17:22.512Z,1008.4
2022-11-10T04:18:25.905Z,1008.5
2022-11-10T04:19:29.271Z,1008.5
2022-11-10T04:20:32.265Z,1008.5
2022-11-10T04:21:35.751Z,1008.5
2022-11-10T04:22:38.935Z,1008.5
2022-11-10T04:23:41.658Z,1008.5
2022-11-10T04:24:44.833Z,1008.6
2022-11-10T04:25:48.132Z,1008.6
2022-11-10T04:26:51.210Z,1008.6
2022-11-10T04:27:54.325Z,1008.6
2022-11-10T04:28:57.358Z,1008.6
2022-11-10T04:30:00.349Z,1008.6
2022-11-10T04:31:03.147Z,1008.7
2022-11-10T04:32:06.193Z,1008.6
2022-11-10T04:33:09.156Z,1008.6
2022-11-10T04:34:12.004Z,1008.6
2022-11-10T04:35:14.532Z,1008.7
2022-11-10T04:36:17.081Z,1008.7
2022-11-10T04:37:20.448Z,1008.7
2022-11-10T04:38:23.606Z,1008.8
2022-11-10T04:39:26.708Z,1008.8
2022-11-10T04:40:29.933Z,1008.9
2022-11-10T04:41:33.125Z,1008.9
2022-11-10T04:42:35.908Z,1008.9
2022-11-10T04:43:38.963Z,1008.9
2022-11-10T04:44:42.126Z,1008.9
2022-11-10T04:45:44.916Z,1009
2022-11-10T04:46:48.268Z,1009
2022-11-10T04:47:50.700Z,1009
2022-11-10T04:48:53.793Z,1009
2022-11-10T04:49:56.641Z,1009
2022-11-10T04:50:59.545Z,1009
2022-11-10T04:52:02.920Z,1009
2022-11-10T04:53:06.323Z,1009
2022-11-10T04:54:09.767Z,1009
2022-11-10T04:55:13.509Z,1009.1
2022-11-10T04:56:16.405Z,1009.1
2022-11-10T04:57:19.679Z,1009.1
2022-11-10T04:58:22.482Z,1009.1
2022-11-10T04:59:25.773Z,1009.1
2022-11-10T05:00:29.720Z,1009.2
2022-11-10T05:01:33.051Z,1009.2
2022-11-10T05:02:40.045Z,1009.1
2022-11-10T05:03:43.431Z,1009.2
2022-11-10T05:04:46.807Z,1009.2
2022-11-10T05:05:50.284Z,1009.2
2022-11-10T05:06:53.173Z,1009.3
2022-11-10T05:07:56.471Z,1009.2
2022-11-10T05:09:00.232Z,1009.2
2022-11-10T05:10:03.553Z,1009.1
2022-11-10T05:11:07.297Z,1009.2
2022-11-10T05:12:10.369Z,1009.2
2022-11-10T05:13:13.252Z,1009.1
2022-11-10T05:14:16.292Z,1009.1
2022-11-10T05:15:19.214Z,1009.1
2022-11-10T05:16:22.407Z,1009.2
2022-11-10T05:17:25.673Z,1009.3
2022-11-10T05:18:28.279Z,1009.3
2022-11-10T05:19:31.272Z,1009.3
2022-11-10T05:20:34.152Z,1009.3
2022-11-10T05:21:37.285Z,1009.3
2022-11-10T05:22:40.862Z,1009.4
2022-11-10T05:23:51.656Z,1009.4
2022-11-10T05:24:55.080Z,1009.3
2022-11-10T05:25:58.080Z,1009.4
2022-11-10T05:27:01.803Z,1009.4
2022-11-10T05:28:04.885Z,1009.4
2022-11-10T05:29:07.906Z,1009.4
2022-11-10T05:30:10.784Z,1009.4
2022-11-10T05:31:14.215Z,1009.4
2022-11-10T05:32:17.682Z,1009.5
2022-11-10T05:33:21.972Z,1009.5
2022-11-10T05:34:27.485Z,1009.5
2022-11-10T05:35:30.015Z,1009.5
2022-11-10T05:36:33.009Z,1009.5
2022-11-10T05:37:36.223Z,1009.6
2022-11-10T05:38:44.093Z,1009.6
2022-11-10T05:39:47.284Z,1009.6
2022-11-10T05:40:51.034Z,1009.6
2022-11-10T05:41:53.195Z,1009.6
2022-11-10T05:42:56.343Z,1009.6
2022-11-10T05:43:59.245Z,1009.7
2022-11-10T05:45:02.058Z,1009.6
2022-11-10T05:46:05.427Z,1009.7
2022-11-10T05:47:08.629Z,1009.7
2022-11-10T05:48:11.449Z,1009.7
2022-11-10T05:49:14.238Z,1009.7
2022-11-10T05:50:17.307Z,1009.7
2022-11-10T05:51:20.447Z,1009.7
2022-11-10T05:52:23.540Z,1009.7
2022-11-10T05:53:26.674Z,1009.7
2022-11-10T05:54:29.851Z,1009.7
2022-11-10T05:55:32.838Z,1009.8
2022-11-10T05:56:35.921Z,1009.9
2022-11-10T05:57:38.084Z,1009.9
2022-11-10T05:58:41.168Z,1009.9
2022-11-10T05:59:43.323Z,1010
2022-11-10T06:00:45.919Z,1010
2022-11-10T06:01:49.293Z,1010
2022-11-10T06:02:52.044Z,1010
2022-11-10T06:03:55.796Z,1010
2022-11-10T06:04:58.509Z,1010.1
2022-11-10T06:06:01.213Z,1010.1
2022-11-10T06:07:03.874Z,1010.1
2022-11-10T06:08:07.569Z,1010.1
2022-11-10T06:09:11.308Z,1010.1
2022-11-10T06:10:14.085Z,1010.1
2022-11-10T06:11:17.126Z,1010.1
2022-11-10T06:12:20.942Z,1010.1
2022-11-10T06:13:25.053Z,1010.1
2022-11-10T06:14:28.482Z,1010.1
2022-11-10T06:15:31.645Z,1010.2
2022-11-10T06:16:34.932Z,1010.3
2022-11-10T06:17:37.731Z,1010.3
2022-11-10T06:18:40.785Z,1010.3
2022-11-10T06:19:43.321Z,1010.3
2022-11-10T06:20:45.837Z,1010.3
2022-11-10T06:21:48.712Z,1010.4
2022-11-10T06:23:08.577Z,1010.4
2022-11-10T06:24:11.937Z,1010.4
2022-11-10T06:25:15.072Z,1010.4
2022-11-10T06:26:17.812Z,1010.5
2022-11-10T06:27:20.972Z,1010.5
2022-11-10T06:28:24.751Z,1010.5
2022-11-10T06:29:28.099Z,1010.5
2022-11-10T06:30:31.105Z,1010.5
2022-11-10T06:31:34.189Z,1010.5
2022-11-10T06:32:37.361Z,1010.6
2022-11-10T06:33:40.159Z,1010.6
2022-11-10T06:34:42.914Z,1010.6
2022-11-10T06:35:45.762Z,1010.6
2022-11-10T06:36:49.480Z,1010.7
2022-11-10T06:37:52.824Z,1010.6
2022-11-10T06:38:55.617Z,1010.6
2022-11-10T06:39:58.086Z,1010.6
2022-11-10T06:41:01.566Z,1010.7
2022-11-10T06:42:04.565Z,1010.7
2022-11-10T06:43:07.387Z,1010.7
2022-11-10T06:44:10.851Z,1010.8
2022-11-10T06:45:13.451Z,1010.8
2022-11-10T06:46:16.829Z,1010.8
2022-11-10T06:47:19.160Z,1010.9
2022-11-10T06:48:22.557Z,1010.9
2022-11-10T06:49:25.349Z,1010.9
2022-11-10T06:50:28.184Z,1011
2022-11-10T06:51:31.352Z,1011
2022-11-10T06:52:34.335Z,1011
2022-11-10T06:53:37.129Z,1011
2022-11-10T06:54:39.842Z,1011
2022-11-10T06:55:42.292Z,1011.1
2022-11-10T06:56:45.775Z,1011
2022-11-10T06:57:48.607Z,1011.1
2022-11-10T06:58:51.493Z,1011.1
2022-11-10T06:59:54.382Z,1011.2
2022-11-10T07:00:57.533Z,1011.2
2022-11-10T07:02:01.008Z,1011.2
2022-11-10T07:03:04.143Z,1011.2
2022-11-10T07:04:20.950Z,1011.2
2022-11-10T07:05:23.990Z,1011.3
2022-11-10T07:06:26.964Z,1011.3
2022-11-10T07:07:30.717Z,1011.3
2022-11-10T07:08:33.261Z,1011.3
2022-11-10T07:09:36.071Z,1011.3
2022-11-10T07:10:38.664Z,1011.4
2022-11-10T07:11:41.181Z,1011.4
2022-11-10T07:12:44.570Z,1011.4
2022-11-10T07:13:47.442Z,1011.4
2022-11-10T07:14:49.955Z,1011.3
2022-11-10T07:15:53.125Z,1011.3
2022-11-10T07:16:55.655Z,1011.4
2022-11-10T07:17:58.535Z,1011.4
2022-11-10T07:19:01.260Z,1011.4
2022-11-10T07:20:04.390Z,1011.4
2022-11-10T07:21:07.188Z,1011.4
2022-11-10T07:22:11.945Z,1011.5
2022-11-10T07:23:14.683Z,1011.5
2022-11-10T07:24:17.678Z,1011.5
2022-11-10T07:25:21.086Z,1011.5
2022-11-10T07:26:24.628Z,1011.5
2022-11-10T07:27:27.970Z,1011.5
2022-11-10T07:28:31.265Z,1011.5
2022-11-10T07:29:34.311Z,1011.6
2022-11-10T07:30:37.126Z,1011.6
2022-11-10T07:31:40.564Z,1011.7
2022-11-10T07:32:43.634Z,1011.7
2022-11-10T07:33:54.590Z,1011.7
2022-11-10T07:34:58.276Z,1011.8
2022-11-10T07:36:00.838Z,1011.8
2022-11-10T07:37:03.642Z,1011.8
2022-11-10T07:38:07.077Z,1011.8
2022-11-10T07:39:09.978Z,1011.9
2022-11-10T07:40:13.143Z,1011.9
2022-11-10T07:41:15.736Z,1011.9
2022-11-10T07:42:19.083Z,1012
2022-11-10T07:43:22.843Z,1012
2022-11-10T07:44:27.535Z,1012
2022-11-10T07:45:31.184Z,1012
2022-11-10T07:46:35.180Z,1012
2022-11-10T07:47:38.277Z,1012
2022-11-10T07:48:42.010Z,1012
2022-11-10T07:49:45.704Z,1012
2022-11-10T07:50:49.082Z,1012
2022-11-10T07:51:51.911Z,1012
2022-11-10T07:52:55.361Z,1012
2022-11-10T07:53:58.372Z,1012
2022-11-10T07:55:01.200Z,1012
2022-11-10T07:56:05.213Z,1012
2022-11-10T07:57:08.103Z,1012
2022-11-10T07:58:11.208Z,1012
2022-11-10T07:59:14.627Z,1012.1
2022-11-10T08:00:18.316Z,1012.1
2022-11-10T08:01:21.418Z,1012.1
2022-11-10T08:02:24.818Z,1012.1
2022-11-10T08:03:28.613Z,1012.1
2022-11-10T08:04:30.293Z,1012.1
2022-11-10T08:05:33.376Z,1012.1
2022-11-10T08:06:37.437Z,1012.1
2022-11-10T08:07:41.619Z,1012
2022-11-10T08:08:46.012Z,1012.1
2022-11-10T08:09:49.345Z,1012
2022-11-10T08:10:51.898Z,1012
2022-11-10T08:11:55.707Z,1012
2022-11-10T08:12:58.774Z,1012.1
2022-11-10T08:14:02.497Z,1012.1
2022-11-10T08:15:05.385Z,1012.1
2022-11-10T08:16:08.787Z,1012.1
2022-11-10T08:17:12.136Z,1012.1
2022-11-10T08:18:15.755Z,1012.1
2022-11-10T08:19:18.909Z,1012.1
2022-11-10T08:20:21.502Z,1012.1
2022-11-10T08:21:24.925Z,1012.1
2022-11-10T08:22:28.104Z,1012.1
2022-11-10T08:23:31.510Z,1012.2
2022-11-10T08:24:35.249Z,1012.1
2022-11-10T08:25:38.426Z,1012.2
2022-11-10T08:26:41.433Z,1012.2
2022-11-10T08:27:44.297Z,1012.3
2022-11-10T08:28:46.836Z,1012.3
2022-11-10T08:29:50.208Z,1012.3
2022-11-10T08:30:53.279Z,1012.3
2022-11-10T08:31:57.381Z,1012.3
2022-11-10T08:33:00.177Z,1012.4
2022-11-10T08:34:02.981Z,1012.3
2022-11-10T08:35:06.792Z,1012.4
2022-11-10T08:36:09.789Z,1012.4
2022-11-10T08:37:12.920Z,1012.4
2022-11-10T08:38:16.656Z,1012.4
2022-11-10T08:39:39.616Z,1012.4
2022-11-10T08:40:43.379Z,1012.5
2022-11-10T08:41:46.549Z,1012.5
2022-11-10T08:42:49.806Z,1012.5
2022-11-10T08:43:53.160Z,1012.5
2022-11-10T08:44:55.686Z,1012.5
2022-11-10T08:45:58.403Z,1012.6
2022-11-10T08:47:02.183Z,1012.6
2022-11-10T08:48:05.059Z,1012.7
2022-11-10T08:49:07.956Z,1012.6
2022-11-10T08:50:11.532Z,1012.6
2022-11-10T08:51:13.984Z,1012.7
2022-11-10T08:52:17.130Z,1012.7
2022-11-10T08:53:20.318Z,1012.7
2022-11-10T08:54:25.807Z,1012.7
2022-11-10T08:55:29.012Z,1012.7
2022-11-10T08:56:32.718Z,1012.7
2022-11-10T08:57:36.574Z,1012.6
2022-11-10T08:58:53.426Z,1012.7
2022-11-10T08:59:57.235Z,1012.8
2022-11-10T09:01:00.035Z,1012.8
2022-11-10T09:02:03.486Z,1012.8
2022-11-10T09:03:07.185Z,1012.8
2022-11-10T09:04:10.661Z,1012.7
2022-11-10T09:05:14.327Z,1012.8
2022-11-10T09:06:17.124Z,1012.9
2022-11-10T09:07:20.030Z,1012.8
2022-11-10T09:08:23.202Z,1012.8
2022-11-10T09:09:26.029Z,1012.8
2022-11-10T09:10:29.173Z,1012.9
2022-11-10T09:11:31.681Z,1012.8
2022-11-10T09:12:35.865Z,1012.9
2022-11-10T09:13:39.029Z,1012.9
2022-11-10T09:14:42.024Z,1012.8
2022-11-10T09:15:45.373Z,1012.9
2022-11-10T09:16:49.102Z,1013
2022-11-10T09:17:51.986Z,1013
2022-11-10T09:18:55.752Z,1013
2022-11-10T09:19:58.978Z,1012.9
2022-11-10T09:21:03.114Z,1013
2022-11-10T09:22:05.645Z,1013
2022-11-10T09:23:08.457Z,1013
2022-11-10T09:24:11.336Z,1013.1
2022-11-10T09:25:13.943Z,1013.1
2022-11-10T09:26:16.935Z,1013
2022-11-10T09:27:20.038Z,1013.1
2022-11-10T09:28:23.158Z,1013.2
2022-11-10T09:29:26.269Z,1013.2
2022-11-10T09:30:29.554Z,1013.2
2022-11-10T09:31:32.431Z,1013.2
2022-11-10T09:32:35.890Z,1013.2
2022-11-10T09:33:39.339Z,1013.3
2022-11-10T09:34:42.909Z,1013.4
2022-11-10T09:35:55.299Z,1013.4
2022-11-10T09:36:58.754Z,1013.4
2022-11-10T09:38:02.193Z,1013.4
2022-11-10T09:39:05.484Z,1013.4
2022-11-10T09:40:13.371Z,1013.4
2022-11-10T09:41:16.756Z,1013.4
2022-11-10T09:42:20.385Z,1013.4
2022-11-10T09:43:24.374Z,1013.5
2022-11-10T09:44:28.082Z,1013.5
2022-11-10T09:45:38.816Z,1013.5
2022-11-10T09:46:42.550Z,1013.5
2022-11-10T09:48:01.101Z,1013.5
2022-11-10T09:49:04.457Z,1013.5
2022-11-10T09:50:08.238Z,1013.4
2022-11-10T09:51:11.778Z,1013.5
2022-11-10T09:52:14.943Z,1013.5
2022-11-10T09:53:17.815Z,1013.6
2022-11-10T09:54:20.936Z,1013.7
2022-11-10T09:55:23.248Z,1013.6
2022-11-10T09:56:26.617Z,1013.6
2022-11-10T09:57:29.422Z,1013.5
2022-11-10T09:58:32.511Z,1013.6
2022-11-10T09:59:36.796Z,1013.6
2022-11-10T10:00:39.918Z,1013.6
2022-11-10T10:01:42.494Z,1013.6
2022-11-10T10:02:46.164Z,1013.6
2022-11-10T10:03:49.160Z,1013.6
2022-11-10T10:04:52.912Z,1013.5
2022-11-10T10:05:56.940Z,1013.6
2022-11-10T10:07:11.862Z,1013.6
2022-11-10T10:08:16.268Z,1013.6
2022-11-10T10:09:19.432Z,1013.6
2022-11-10T10:10:22.941Z,1013.5
2022-11-10T10:11:25.398Z,1013.6
2022-11-10T10:12:28.481Z,1013.5
2022-11-10T10:13:31.296Z,1013.6
2022-11-10T10:14:34.479Z,1013.6
2022-11-10T10:15:37.989Z,1013.7
2022-11-10T10:16:41.107Z,1013.7
2022-11-10T10:17:43.836Z,1013.7
2022-11-10T10:18:46.365Z,1013.7
2022-11-10T10:19:48.930Z,1013.7
2022-11-10T10:20:52.001Z,1013.7
2022-11-10T10:21:56.064Z,1013.7
2022-11-10T10:22:59.802Z,1013.6
2022-11-10T10:24:15.041Z,1013.6
2022-11-10T10:25:24.866Z,1013.7
2022-11-10T10:26:27.947Z,1013.7
2022-11-10T10:27:30.782Z,1013.7
2022-11-10T10:28:34.329Z,1013.7
2022-11-10T10:29:38.440Z,1013.7
2022-11-10T10:30:41.749Z,1013.6
2022-11-10T10:31:44.403Z,1013.7
2022-11-10T10:32:47.774Z,1013.7
2022-11-10T10:33:50.578Z,1013.7
2022-11-10T10:34:53.923Z,1013.7
2022-11-10T10:35:57.632Z,1013.7
2022-11-10T10:37:01.043Z,1013.6
2022-11-10T10:38:03.800Z,1013.8
2022-11-10T10:39:07.564Z,1013.8
2022-11-10T10:40:10.450Z,1013.8
2022-11-10T10:41:13.329Z,1013.8
2022-11-10T10:42:26.386Z,1013.8
2022-11-10T10:43:28.708Z,1013.8
2022-11-10T10:44:32.368Z,1013.8
2022-11-10T10:45:34.997Z,1013.8
2022-11-10T10:46:38.307Z,1013.8
2022-11-10T10:47:41.679Z,1013.8
2022-11-10T10:49:02.810Z,1013.8
2022-11-10T10:50:33.812Z,1013.9
2022-11-10T10:51:36.601Z,1013.9
2022-11-10T10:52:40.289Z,1013.8
2022-11-10T10:53:43.671Z,1013.9
2022-11-10T10:54:47.776Z,1013.9
2022-11-10T10:55:50.303Z,1013.9
2022-11-10T10:56:53.752Z,1013.9
2022-11-10T10:57:57.475Z,1013.8
2022-11-10T10:59:00.546Z,1013.8
2022-11-10T11:00:03.435Z,1013.9
2022-11-10T11:01:07.576Z,1013.8
2022-11-10T11:02:11.100Z,1013.8
2022-11-10T11:03:13.932Z,1013.8
2022-11-10T11:04:16.730Z,1013.8
2022-11-10T11:05:19.545Z,1013.8
2022-11-10T11:06:22.624Z,1013.8
2022-11-10T11:07:25.532Z,1013.9
2022-11-10T11:08:29.026Z,1013.9
2022-11-10T11:09:32.369Z,1013.9
2022-11-10T11:10:36.256Z,1014
2022-11-10T11:11:39.375Z,1013.9
2022-11-10T11:12:42.454Z,1014
2022-11-10T11:13:46.428Z,1013.9
2022-11-10T11:14:49.708Z,1014
2022-11-10T11:15:52.505Z,1014
2022-11-10T11:16:55.332Z,1014
2022-11-10T11:17:58.389Z,1013.9
2022-11-10T11:19:01.803Z,1014.1
2022-11-10T11:20:04.322Z,1014
2022-11-10T11:21:08.139Z,1013.9
2022-11-10T11:22:11.365Z,1014
2022-11-10T11:23:15.073Z,1014
2022-11-10T11:24:18.387Z,1013.9
2022-11-10T11:25:21.746Z,1013.9
2022-11-10T11:26:24.844Z,1013.9
2022-11-10T11:27:27.667Z,1013.9
2022-11-10T11:28:31.384Z,1013.9
2022-11-10T11:29:35.258Z,1013.9
2022-11-10T11:30:38.083Z,1013.9
2022-11-10T11:31:43.825Z,1013.9
2022-11-10T11:32:47.374Z,1013.9
2022-11-10T11:33:50.399Z,1014
2022-11-10T11:34:52.854Z,1014
2022-11-10T11:35:55.929Z,1014
2022-11-10T11:36:58.515Z,1014
2022-11-10T11:38:01.768Z,1014
2022-11-10T11:39:04.228Z,1014
2022-11-10T11:40:07.986Z,1014
2022-11-10T11:41:10.721Z,1014
2022-11-10T11:42:14.198Z,1014
2022-11-10T11:43:17.187Z,1014
2022-11-10T11:44:20.918Z,1014
2022-11-10T11:45:23.357Z,1014
2022-11-10T11:46:26.354Z,1013.9
2022-11-10T11:47:29.496Z,1013.9
2022-11-10T11:48:32.564Z,1013.9
2022-11-10T11:49:35.957Z,1013.9
2022-11-10T11:50:39.784Z,1013.9
2022-11-10T11:51:42.808Z,1013.9
2022-11-10T11:52:45.535Z,1013.9
2022-11-10T11:53:49.347Z,1013.9
2022-11-10T11:54:52.808Z,1013.9
2022-11-10T11:55:55.655Z,1014
2022-11-10T11:56:59.313Z,1013.9
2022-11-10T11:58:03.047Z,1014.1
2022-11-10T11:59:05.615Z,1014.1
2022-11-10T12:00:08.961Z,1014.1
2022-11-10T12:01:12.680Z,1014.1
2022-11-10T12:02:16.579Z,1014.1
2022-11-10T12:03:20.260Z,1014.1
2022-11-10T12:04:23.014Z,1014
2022-11-10T12:05:26.434Z,1014.1
2022-11-10T12:06:30.327Z,1014
2022-11-10T12:07:33.234Z,1014.1
2022-11-10T12:08:36.581Z,1014
2022-11-10T12:09:38.922Z,1014.1
2022-11-10T12:10:43.935Z,1014.2
2022-11-10T12:11:47.394Z,1014.2
2022-11-10T12:12:50.662Z,1014.1
2022-11-10T12:13:54.155Z,1014
2022-11-10T12:14:57.522Z,1014.1
2022-11-10T12:15:59.966Z,1014.2
2022-11-10T12:17:03.050Z,1014.1
2022-11-10T12:18:05.919Z,1014.1
2022-11-10T12:19:09.194Z,1014.1
2022-11-10T12:20:12.473Z,1014.1
2022-11-10T12:21:16.170Z,1014.1
2022-11-10T12:22:19.563Z,1014.1
2022-11-10T12:23:22.840Z,1014.1
2022-11-10T12:24:26.299Z,1014.3
2022-11-10T12:25:29.494Z,1014.2
2022-11-10T12:26:32.221Z,1014.2
2022-11-10T12:27:35.920Z,1014.2
2022-11-10T12:28:39.289Z,1014.2
2022-11-10T12:29:43.058Z,1014.2
2022-11-10T12:30:46.449Z,1014.3
2022-11-10T12:31:49.247Z,1014.4
2022-11-10T12:32:52.239Z,1014.3
2022-11-10T12:33:55.316Z,1014.3
2022-11-10T12:34:59.045Z,1014.3
2022-11-10T12:36:01.872Z,1014.4
2022-11-10T12:37:05.363Z,1014.4
2022-11-10T12:38:09.024Z,1014.4
2022-11-10T12:39:11.743Z,1014.3
2022-11-10T12:40:15.464Z,1014.4
2022-11-10T12:41:18.918Z,1014.3
2022-11-10T12:42:21.728Z,1014.4
2022-11-10T12:43:25.589Z,1014.4
2022-11-10T12:44:28.608Z,1014.4
2022-11-10T12:45:31.844Z,1014.4
2022-11-10T12:46:34.926Z,1014.4
2022-11-10T12:47:37.899Z,1014.4
2022-11-10T12:48:41.348Z,1014.4
2022-11-10T12:49:44.419Z,1014.4
2022-11-10T12:50:46.967Z,1014.4
2022-11-10T12:51:50.062Z,1014.4
2022-11-10T12:52:53.461Z,1014.4
2022-11-10T12:53:56.609Z,1014.3
2022-11-10T12:54:59.405Z,1014.3
2022-11-10T12:56:02.841Z,1014.3
2022-11-10T12:57:05.393Z,1014.2
2022-11-10T12:58:08.219Z,1014.2
2022-11-10T12:59:11.912Z,1014.3
2022-11-10T13:00:22.508Z,1014.3
2022-11-10T13:01:32.405Z,1014.4
2022-11-10T13:02:36.237Z,1014.3
2022-11-10T13:03:39.599Z,1014.3
2022-11-10T13:04:42.117Z,1014.3
2022-11-10T13:05:44.919Z,1014.3
2022-11-10T13:06:48.190Z,1014.3
2022-11-10T13:07:52.192Z,1014.2
2022-11-10T13:08:55.397Z,1014.2
2022-11-10T13:09:58.287Z,1014.2
2022-11-10T13:11:01.363Z,1014.2
2022-11-10T13:12:03.683Z,1014.3
2022-11-10T13:13:07.023Z,1014.2
2022-11-10T13:14:09.886Z,1014.3
2022-11-10T13:15:12.606Z,1014.3
2022-11-10T13:16:15.780Z,1014.4
2022-11-10T13:17:19.343Z,1014.4
2022-11-10T13:18:23.251Z,1014.4
2022-11-10T13:19:27.086Z,1014.4